createdAt,value
2023-02-03T07:45:17.060Z,5.62
2023-02-03T07:46:17.089Z,11.25
2023-02-03T07:47:17.004Z,11.25
2023-02-03T07:48:16.990Z,11.25
2023-02-03T07:49:16.990Z,11.25
2023-02-03T07:50:16.966Z,11.25
2023-02-03T07:51:16.946Z,11.25
2023-02-03T07:52:16.949Z,11.25
2023-02-03T07:53:16.923Z,11.25
2023-02-03T07:54:16.917Z,11.25
2023-02-03T07:55:16.918Z,11.25
2023-02-03T07:56:16.885Z,11.25
2023-02-03T07:57:16.892Z,11.25
2023-02-03T07:58:16.877Z,11.25
2023-02-03T07:59:16.867Z,11.25
2023-02-03T08:00:16.881Z,11.25
2023-02-03T08:01:16.854Z,11.25
2023-02-03T08:02:16.817Z,11.25
2023-02-03T08:03:16.839Z,11.25
2023-02-03T08:04:16.807Z,11.25
2023-02-03T08:05:16.843Z,11.25
2023-02-03T08:06:16.775Z,11.25
2023-02-03T08:07:16.777Z,11.25
2023-02-03T08:08:16.775Z,11.25
2023-02-03T08:09:16.755Z,11.25
2023-02-03T08:10:16.724Z,11.25
2023-02-03T08:11:16.750Z,11.25
2023-02-03T08:12:16.715Z,11.25
2023-02-03T08:13:16.722Z,11.25
2023-02-03T08:14:16.693Z,11.25
2023-02-03T08:15:16.688Z,11.25
2023-02-03T08:16:16.811Z,11.25
2023-02-03T08:17:16.721Z,11.25
2023-02-03T08:18:16.667Z,11.25
2023-02-03T08:19:16.645Z,11.25
2023-02-03T08:20:16.618Z,11.25
2023-02-03T08:21:16.625Z,11.25
2023-02-03T08:22:16.621Z,11.25
2023-02-03T08:23:16.604Z,11.25
2023-02-03T08:24:16.569Z,11.25
2023-02-03T08:25:16.574Z,11.25
2023-02-03T08:26:16.549Z,5.62
2023-02-03T08:27:16.543Z,11.25
2023-02-03T08:28:16.646Z,11.25
2023-02-03T08:29:16.513Z,11.25
2023-02-03T08:30:16.510Z,11.25
2023-02-03T08:31:16.599Z,5.62
2023-02-03T08:32:16.580Z,11.25
2023-02-03T08:33:16.514Z,11.25
2023-02-03T08:34:16.451Z,11.25
2023-02-03T08:35:16.447Z,11.25
2023-02-03T08:36:16.430Z,11.25
2023-02-03T08:37:16.445Z,16.88
2023-02-03T08:38:16.431Z,16.88
2023-02-03T08:39:16.424Z,16.88
2023-02-03T08:40:16.406Z,16.88
2023-02-03T08:41:16.386Z,22.50
2023-02-03T08:42:16.377Z,16.88
2023-02-03T08:43:16.371Z,11.25
2023-02-03T08:44:16.356Z,11.25
2023-02-03T08:45:16.365Z,11.25
2023-02-03T08:46:16.331Z,5.62
2023-02-03T08:47:16.320Z,5.62
2023-02-03T08:48:16.306Z,5.62
2023-02-03T08:49:16.323Z,11.25
2023-02-03T08:50:16.277Z,5.62
2023-02-03T08:51:16.269Z,11.25
2023-02-03T08:52:18.174Z,11.25
2023-02-03T08:53:16.258Z,11.25
2023-02-03T08:54:16.243Z,5.62
2023-02-03T08:55:16.230Z,11.25
2023-02-03T08:56:16.230Z,5.62
2023-02-03T08:57:16.212Z,11.25
2023-02-03T08:58:16.184Z,11.25
2023-02-03T08:59:16.189Z,11.25
2023-02-03T09:00:16.171Z,11.25
2023-02-03T09:01:16.271Z,11.25
2023-02-03T09:02:16.146Z,11.25
2023-02-03T09:03:16.126Z,11.25
2023-02-03T09:04:16.135Z,11.25
2023-02-03T09:05:16.260Z,11.25
2023-02-03T09:06:16.107Z,11.25
2023-02-03T09:07:16.083Z,11.25
2023-02-03T09:08:16.079Z,11.25
2023-02-03T09:09:16.084Z,11.25
2023-02-03T09:10:16.079Z,11.25
2023-02-03T09:11:16.063Z,11.25
2023-02-03T09:12:16.039Z,11.25
2023-02-03T09:13:16.029Z,11.25
2023-02-03T09:14:16.020Z,11.25
2023-02-03T09:15:15.990Z,11.25
2023-02-03T09:16:16.020Z,11.25
2023-02-03T09:17:15.991Z,11.25
2023-02-03T09:18:15.968Z,11.25
2023-02-03T09:19:15.973Z,11.25
2023-02-03T09:20:15.957Z,11.25
2023-02-03T09:21:32.117Z,11.25
2023-02-03T09:22:16.905Z,11.25
2023-02-03T09:23:15.896Z,16.88
2023-02-03T09:24:15.916Z,16.88
2023-02-03T09:25:15.876Z,11.25
2023-02-03T09:26:15.866Z,11.25
2023-02-03T09:27:15.863Z,11.25
2023-02-03T09:28:15.970Z,16.88
2023-02-03T09:29:15.862Z,16.88
2023-02-03T09:30:15.821Z,16.88
2023-02-03T09:31:15.948Z,16.88
2023-02-03T09:32:16.023Z,16.88
2023-02-03T09:33:15.792Z,16.88
2023-02-03T09:34:15.802Z,11.25
2023-02-03T09:35:15.787Z,16.88
2023-02-03T09:36:15.770Z,11.25
2023-02-03T09:37:15.764Z,16.88
2023-02-03T09:38:15.741Z,11.25
2023-02-03T09:39:15.861Z,16.88
2023-02-03T09:40:15.712Z,16.88
2023-02-03T09:41:15.691Z,16.88
2023-02-03T09:42:15.691Z,16.88
2023-02-03T09:43:15.681Z,16.88
2023-02-03T09:44:15.682Z,16.88
2023-02-03T09:45:15.673Z,16.88
2023-02-03T09:46:15.667Z,16.88
2023-02-03T09:47:15.625Z,11.25
2023-02-03T09:48:15.624Z,16.88
2023-02-03T09:49:15.603Z,16.88
2023-02-03T09:50:15.609Z,16.88
2023-02-03T09:51:15.625Z,22.50
2023-02-03T09:52:15.578Z,22.50
2023-02-03T09:53:15.596Z,22.50
2023-02-03T09:54:15.540Z,16.88
2023-02-03T09:55:15.568Z,22.50
2023-02-03T09:56:15.540Z,16.88
2023-02-03T09:57:15.536Z,16.88
2023-02-03T09:58:15.495Z,16.88
2023-02-03T09:59:15.506Z,16.88
2023-02-03T10:00:15.506Z,22.50
2023-02-03T10:01:15.574Z,22.50
2023-02-03T10:02:17.625Z,16.88
2023-02-03T10:03:15.455Z,22.50
2023-02-03T10:04:15.452Z,22.50
2023-02-03T10:05:15.432Z,16.88
2023-02-03T10:06:15.427Z,16.88
2023-02-03T10:07:15.411Z,16.88
2023-02-03T10:08:15.400Z,16.88
2023-02-03T10:09:15.395Z,16.88
2023-02-03T10:10:15.370Z,16.88
2023-02-03T10:11:15.359Z,16.88
2023-02-03T10:12:15.339Z,11.25
2023-02-03T10:13:15.339Z,16.88
2023-02-03T10:14:15.310Z,16.88
2023-02-03T10:15:15.311Z,16.88
2023-02-03T10:16:15.319Z,11.25
2023-02-03T10:17:15.289Z,11.25
2023-02-03T10:18:15.292Z,16.88
2023-02-03T10:19:15.270Z,16.88
2023-02-03T10:20:15.263Z,16.88
2023-02-03T10:21:15.253Z,16.88
2023-02-03T10:22:15.237Z,16.88
2023-02-03T10:23:15.221Z,16.88
2023-02-03T10:24:15.229Z,16.88
2023-02-03T10:25:15.231Z,22.50
2023-02-03T10:26:15.203Z,16.88
2023-02-03T10:27:15.163Z,16.88
2023-02-03T10:28:15.230Z,16.88
2023-02-03T10:29:15.141Z,16.88
2023-02-03T10:30:15.132Z,16.88
2023-02-03T10:31:15.245Z,16.88
2023-02-03T10:32:15.189Z,16.88
2023-02-03T10:33:15.106Z,22.50
2023-02-03T10:34:15.100Z,22.50
2023-02-03T10:35:15.084Z,22.50
2023-02-03T10:36:15.080Z,28.12
2023-02-03T10:37:15.091Z,22.50
2023-02-03T10:38:15.044Z,28.12
2023-02-03T10:39:15.037Z,28.12
2023-02-03T10:40:15.031Z,22.50
2023-02-03T10:41:15.137Z,28.12
2023-02-03T10:42:15.005Z,28.12
2023-02-03T10:43:14.992Z,33.75
2023-02-03T10:44:14.999Z,28.12
2023-02-03T10:45:14.971Z,28.12
2023-02-03T10:46:15.023Z,22.50
2023-02-03T10:47:14.951Z,28.12
2023-02-03T10:48:14.947Z,28.12
2023-02-03T10:49:14.928Z,28.12
2023-02-03T10:50:14.932Z,28.12
2023-02-03T10:51:14.893Z,28.12
2023-02-03T10:52:14.911Z,28.12
2023-02-03T10:53:14.867Z,28.12
2023-02-03T10:54:14.859Z,33.75
2023-02-03T10:55:14.847Z,28.12
2023-02-03T10:56:14.873Z,28.12
2023-02-03T10:57:14.936Z,22.50
2023-02-03T10:58:14.818Z,33.75
2023-02-03T10:59:14.801Z,33.75
2023-02-03T11:00:14.793Z,28.12
2023-02-03T11:01:14.845Z,33.75
2023-02-03T11:02:14.813Z,33.75
2023-02-03T11:03:14.757Z,33.75
2023-02-03T11:04:14.749Z,33.75
2023-02-03T11:05:14.756Z,39.38
2023-02-03T11:06:14.740Z,28.12
2023-02-03T11:07:14.754Z,28.12
2023-02-03T11:08:14.705Z,28.12
2023-02-03T11:09:14.700Z,33.75
2023-02-03T11:10:14.695Z,28.12
2023-02-03T11:11:14.687Z,22.50
2023-02-03T11:12:14.663Z,22.50
2023-02-03T11:13:14.685Z,22.50
2023-02-03T11:14:14.652Z,28.12
2023-02-03T11:15:14.621Z,22.50
2023-02-03T11:16:14.726Z,22.50
2023-02-03T11:17:14.636Z,28.12
2023-02-03T11:18:14.614Z,22.50
2023-02-03T11:19:14.582Z,22.50
2023-02-03T11:20:14.563Z,22.50
2023-02-03T11:21:14.697Z,22.50
2023-02-03T11:22:14.554Z,22.50
2023-02-03T11:23:14.552Z,28.12
2023-02-03T11:24:14.530Z,28.12
2023-02-03T11:25:14.502Z,33.75
2023-02-03T11:26:14.501Z,28.12
2023-02-03T11:27:14.495Z,28.12
2023-02-03T11:28:14.593Z,28.12
2023-02-03T11:29:14.479Z,22.50
2023-02-03T11:30:14.502Z,28.12
2023-02-03T11:31:14.544Z,22.50
2023-02-03T11:32:14.447Z,22.50
2023-02-03T11:33:14.437Z,22.50
2023-02-03T11:34:14.404Z,22.50
2023-02-03T11:35:14.387Z,28.12
2023-02-03T11:36:14.394Z,28.12
2023-02-03T11:37:14.368Z,39.38
2023-02-03T11:38:14.387Z,33.75
2023-02-03T11:39:14.347Z,28.12
2023-02-03T11:40:14.348Z,22.50
2023-02-03T11:41:14.321Z,22.50
2023-02-03T11:42:14.316Z,28.12
2023-02-03T11:43:14.309Z,22.50
2023-02-03T11:44:14.304Z,22.50
2023-02-03T11:45:14.339Z,16.88
2023-02-03T11:46:14.298Z,16.88
2023-02-03T11:47:14.257Z,16.88
2023-02-03T11:48:14.264Z,16.88
2023-02-03T11:49:14.243Z,16.88
2023-02-03T11:50:14.246Z,22.50
2023-02-03T11:51:14.230Z,22.50
2023-02-03T11:52:14.213Z,16.88
2023-02-03T11:53:14.205Z,16.88
2023-02-03T11:54:14.176Z,16.88
2023-02-03T11:55:14.174Z,16.88
2023-02-03T11:56:14.171Z,16.88
2023-02-03T11:57:14.175Z,16.88
2023-02-03T11:58:14.167Z,16.88
2023-02-03T11:59:14.116Z,16.88
2023-02-03T12:00:14.123Z,22.50
2023-02-03T12:01:14.128Z,22.50
2023-02-03T12:02:14.095Z,28.12
2023-02-03T12:03:14.193Z,16.88
2023-02-03T12:04:14.142Z,16.88
2023-02-03T12:05:14.049Z,11.25
2023-02-03T12:06:14.051Z,11.25
2023-02-03T12:07:14.024Z,22.50
2023-02-03T12:08:14.035Z,22.50
2023-02-03T12:09:14.006Z,22.50
2023-02-03T12:10:14.023Z,28.12
2023-02-03T12:11:13.996Z,22.50
2023-02-03T12:12:13.984Z,22.50
2023-02-03T12:13:13.986Z,16.88
2023-02-03T12:14:13.984Z,16.88
2023-02-03T12:15:13.959Z,16.88
2023-02-03T12:16:13.991Z,16.88
2023-02-03T12:17:13.931Z,16.88
2023-02-03T12:18:13.922Z,16.88
2023-02-03T12:19:13.897Z,16.88
2023-02-03T12:20:13.898Z,16.88
2023-02-03T12:21:13.876Z,16.88
2023-02-03T12:22:13.866Z,16.88
2023-02-03T12:23:13.889Z,16.88
2023-02-03T12:24:13.834Z,16.88
2023-02-03T12:25:13.834Z,22.50
2023-02-03T12:26:13.834Z,22.50
2023-02-03T12:27:13.809Z,22.50
2023-02-03T12:28:27.447Z,16.88
2023-02-03T12:29:14.797Z,16.88
2023-02-03T12:30:13.783Z,16.88
2023-02-03T12:31:13.855Z,16.88
2023-02-03T12:32:13.746Z,16.88
2023-02-03T12:33:13.746Z,16.88
2023-02-03T12:34:13.722Z,16.88
2023-02-03T12:35:13.706Z,16.88
2023-02-03T12:36:13.729Z,16.88
2023-02-03T12:37:13.682Z,16.88
2023-02-03T12:38:13.674Z,16.88
2023-02-03T12:39:13.672Z,16.88
2023-02-03T12:40:13.653Z,16.88
2023-02-03T12:41:13.653Z,16.88
2023-02-03T12:42:13.631Z,16.88
2023-02-03T12:43:13.630Z,16.88
2023-02-03T12:44:13.611Z,16.88
2023-02-03T12:45:13.593Z,22.50
2023-02-03T12:46:13.696Z,22.50
2023-02-03T12:47:13.598Z,16.88
2023-02-03T12:48:13.585Z,22.50
2023-02-03T12:49:13.579Z,16.88
2023-02-03T12:50:13.550Z,16.88
2023-02-03T12:51:13.532Z,16.88
2023-02-03T12:52:13.536Z,16.88
2023-02-03T12:53:13.502Z,16.88
2023-02-03T12:54:13.522Z,16.88
2023-02-03T12:55:13.498Z,16.88
2023-02-03T12:56:13.470Z,16.88
2023-02-03T12:57:13.482Z,16.88
2023-02-03T12:58:13.472Z,16.88
2023-02-03T12:59:13.431Z,16.88
2023-02-03T13:00:13.433Z,16.88
2023-02-03T13:01:13.495Z,16.88
2023-02-03T13:02:13.476Z,16.88
2023-02-03T13:03:13.398Z,16.88
2023-02-03T13:04:13.380Z,16.88
2023-02-03T13:05:13.384Z,16.88
2023-02-03T13:06:13.375Z,16.88
2023-02-03T13:07:13.369Z,11.25
2023-02-03T13:08:13.341Z,11.25
2023-02-03T13:09:13.343Z,16.88
2023-02-03T13:10:13.311Z,11.25
2023-02-03T13:11:15.240Z,16.88
2023-02-03T13:12:13.308Z,11.25
2023-02-03T13:13:13.302Z,11.25
2023-02-03T13:14:13.267Z,11.25
2023-02-03T13:15:13.259Z,11.25
2023-02-03T13:16:13.297Z,16.88
2023-02-03T13:17:13.232Z,11.25
2023-02-03T13:18:13.254Z,16.88
2023-02-03T13:19:13.217Z,16.88
2023-02-03T13:20:13.222Z,11.25
2023-02-03T13:21:13.218Z,11.25
2023-02-03T13:22:13.195Z,11.25
2023-02-03T13:23:13.200Z,16.88
2023-02-03T13:24:13.155Z,11.25
2023-02-03T13:25:13.137Z,16.88
2023-02-03T13:26:13.141Z,11.25
2023-02-03T13:27:13.113Z,11.25
2023-02-03T13:28:13.178Z,11.25
2023-02-03T13:29:13.092Z,11.25
2023-02-03T13:30:13.174Z,11.25
2023-02-03T13:31:13.164Z,11.25
2023-02-03T13:32:13.116Z,11.25
2023-02-03T13:33:13.060Z,11.25
2023-02-03T13:34:13.064Z,11.25
2023-02-03T13:35:18.628Z,11.25
2023-02-03T13:36:14.016Z,5.62
2023-02-03T13:37:13.040Z,11.25
2023-02-03T13:38:13.004Z,5.62
2023-02-03T13:39:13.100Z,5.62
2023-02-03T13:40:14.055Z,11.25
2023-02-03T13:41:12.965Z,11.25
2023-02-03T13:42:13.008Z,11.25
2023-02-03T13:43:12.945Z,11.25
2023-02-03T13:44:12.948Z,5.62
2023-02-03T13:45:12.908Z,11.25
2023-02-03T13:46:12.936Z,11.25
2023-02-03T13:47:12.898Z,11.25
2023-02-03T13:48:12.896Z,5.62
2023-02-03T13:49:12.896Z,5.62
2023-02-03T13:50:12.922Z,5.62
2023-02-03T13:51:12.858Z,5.62
2023-02-03T13:52:15.148Z,11.25
2023-02-03T13:53:12.859Z,5.62
2023-02-03T13:54:12.825Z,5.62
2023-02-03T13:55:12.792Z,5.62
2023-02-03T13:56:12.797Z,5.62
2023-02-03T13:57:12.788Z,5.62
2023-02-03T13:58:12.777Z,5.62
2023-02-03T13:59:12.777Z,11.25
2023-02-03T14:00:12.743Z,11.25
2023-02-03T14:01:12.828Z,5.62
2023-02-03T14:02:12.718Z,5.62
2023-02-03T14:03:12.732Z,11.25
2023-02-03T14:04:12.917Z,11.25
2023-02-03T14:05:12.692Z,11.25
2023-02-03T14:06:12.688Z,16.88
2023-02-03T14:07:12.739Z,16.88
2023-02-03T14:08:12.649Z,22.50
2023-02-03T14:09:12.687Z,22.50
2023-02-03T14:10:12.678Z,16.88
2023-02-03T14:11:12.610Z,22.50
2023-02-03T14:12:12.637Z,22.50
2023-02-03T14:13:12.590Z,11.25
2023-02-03T14:14:12.600Z,22.50
2023-02-03T14:15:12.584Z,22.50
2023-02-03T14:16:12.719Z,16.88
2023-02-03T14:17:12.557Z,16.88
2023-02-03T14:18:12.537Z,28.12
2023-02-03T14:19:12.526Z,33.75
2023-02-03T14:20:12.539Z,22.50
2023-02-03T14:21:12.580Z,22.50
2023-02-03T14:22:12.497Z,28.12
2023-02-03T14:23:12.477Z,39.38
2023-02-03T14:24:12.484Z,28.12
2023-02-03T14:25:12.501Z,28.12
2023-02-03T14:26:12.459Z,33.75
2023-02-03T14:27:12.429Z,33.75
2023-02-03T14:28:12.470Z,16.88
2023-02-03T14:29:12.420Z,16.88
2023-02-03T14:30:12.444Z,22.50
2023-02-03T14:31:12.869Z,16.88
2023-02-03T14:32:12.395Z,28.12
2023-02-03T14:33:12.374Z,16.88
2023-02-03T14:34:12.372Z,22.50
2023-02-03T14:35:12.355Z,22.50
2023-02-03T14:36:12.328Z,33.75
2023-02-03T14:37:12.333Z,28.12
2023-02-03T14:38:12.314Z,22.50
2023-02-03T14:39:12.313Z,16.88
2023-02-03T14:40:12.437Z,16.88
2023-02-03T14:41:12.310Z,28.12
2023-02-03T14:42:12.258Z,33.75
2023-02-03T14:43:12.537Z,39.38
2023-02-03T14:44:12.237Z,45.00
2023-02-03T14:45:12.255Z,39.38
2023-02-03T14:46:12.320Z,50.62
2023-02-03T14:47:12.205Z,56.25
2023-02-03T14:48:12.203Z,50.62
2023-02-03T14:49:12.198Z,50.62
2023-02-03T14:50:12.181Z,50.62
2023-02-03T14:51:12.172Z,45.00
2023-02-03T14:52:12.150Z,45.00
2023-02-03T14:53:12.137Z,45.00
2023-02-03T14:54:12.137Z,45.00
2023-02-03T14:55:12.145Z,45.00
2023-02-03T14:56:12.104Z,45.00
2023-02-03T14:57:12.132Z,39.38
2023-02-03T14:58:12.089Z,39.38
2023-02-03T14:59:12.088Z,39.38
2023-02-03T15:00:12.087Z,39.38
2023-02-03T15:01:12.075Z,39.38
2023-02-03T15:02:12.033Z,39.38
2023-02-03T15:03:12.044Z,39.38
2023-02-03T15:04:12.010Z,33.75
2023-02-03T15:05:12.050Z,28.12
2023-02-03T15:06:12.019Z,28.12
2023-02-03T15:07:11.977Z,28.12
2023-02-03T15:08:11.967Z,28.12
2023-02-03T15:09:11.970Z,28.12
2023-02-03T15:10:11.957Z,22.50
2023-02-03T15:11:11.953Z,22.50
2023-02-03T15:12:11.933Z,22.50
2023-02-03T15:13:11.932Z,22.50
2023-02-03T15:14:11.907Z,28.12
2023-02-03T15:15:11.888Z,16.88
2023-02-03T15:16:11.958Z,22.50
2023-02-03T15:17:11.884Z,22.50
2023-02-03T15:18:11.852Z,22.50
2023-02-03T15:19:11.841Z,22.50
2023-02-03T15:20:11.832Z,22.50
2023-02-03T15:21:11.842Z,22.50
2023-02-03T15:22:11.804Z,22.50
2023-02-03T15:23:11.816Z,22.50
2023-02-03T15:24:11.796Z,22.50
2023-02-03T15:25:11.775Z,22.50
2023-02-03T15:26:11.796Z,16.88
2023-02-03T15:27:11.753Z,16.88
2023-02-03T15:28:11.846Z,11.25
2023-02-03T15:29:11.754Z,5.62
2023-02-03T15:30:11.725Z,5.62
2023-02-03T15:31:11.818Z,5.62
2023-02-03T15:32:11.803Z,11.25
2023-02-03T15:33:11.705Z,11.25
2023-02-03T15:34:11.679Z,5.62
2023-02-03T15:35:11.662Z,5.62
2023-02-03T15:36:11.645Z,5.62
2023-02-03T15:37:11.664Z,5.62
2023-02-03T15:38:11.629Z,5.62
2023-02-03T15:39:11.615Z,5.62
2023-02-03T15:40:11.599Z,5.62
2023-02-03T15:41:11.606Z,5.62
2023-02-03T15:42:11.598Z,5.62
2023-02-03T15:43:11.585Z,5.62
2023-02-03T15:44:11.572Z,5.62
2023-02-03T15:45:11.575Z,5.62
2023-02-03T15:46:11.618Z,5.62
2023-02-03T15:47:11.609Z,0.00
2023-02-03T15:48:11.525Z,5.62
2023-02-03T15:49:11.516Z,0.00
2023-02-03T15:50:11.483Z,0.00
2023-02-03T15:51:11.497Z,0.00
2023-02-03T15:52:11.500Z,0.00
2023-02-03T15:53:11.466Z,0.00
2023-02-03T15:54:11.455Z,0.00
2023-02-03T15:55:11.445Z,0.00
2023-02-03T15:56:11.432Z,0.00
2023-02-03T15:57:11.436Z,0.00
2023-02-03T15:58:11.409Z,0.00
2023-02-03T15:59:11.388Z,0.00
2023-02-03T16:00:11.389Z,0.00
2023-02-03T16:01:11.384Z,0.00
2023-02-03T16:02:11.443Z,0.00
2023-02-03T16:03:11.394Z,0.00
2023-02-03T16:04:11.350Z,0.00
2023-02-03T16:05:11.331Z,0.00
2023-02-03T16:06:11.320Z,0.00
2023-02-03T16:07:11.334Z,0.00
2023-02-03T16:08:11.295Z,0.00
2023-02-03T16:09:11.274Z,0.00
2023-02-03T16:10:11.292Z,0.00
2023-02-03T16:11:11.274Z,0.00
2023-02-03T16:12:11.252Z,0.00
2023-02-03T16:13:11.259Z,0.00
2023-02-03T16:14:11.210Z,0.00
2023-02-03T16:15:11.216Z,0.00
2023-02-03T16:16:11.246Z,0.00
2023-02-03T16:17:11.223Z,0.00
2023-02-03T16:18:11.199Z,0.00
2023-02-03T16:19:11.156Z,0.00
2023-02-03T16:20:11.170Z,0.00
2023-02-03T16:21:11.136Z,0.00
